Latest Weather Observations for South Channel Island

IDV60801

Issued at 9:32 am EDT Tuesday 24 October 2017 (issued every 30 minutes, with the page automatically refreshed every 10 minutes)

About weather observations | Map of weather stations | Latest weather observations for VIC | Other Formats
Station Details ID: 086344 Name: SOUTH CHANNEL ISLAND Lat: -38.31 Lon: 144.80 Height: 9.0 m
Data from the previous 72 hours. | See also: Recent months for locations in Victoria
Date/Time
EDT
Temp
°C
App
Temp
°C
Dew
Point
°C
Rel
Hum
%
Delta-T
°C
Wind Press
QNH
hPa
Press
MSL
hPa
Rain since
9am
mm
Dir  Spd
km/h
Gust
km/h
Spd
kts
Gust
kts
24/09:30am - - - - - WNW 9 11 5 6 - - -
24/09:00am - - - - - NNW 9 11 5 6 - - -
24/08:30am - - - - - N 9 13 5 7 - - -
24/08:00am - - - - - N 9 11 5 6 - - -
24/07:30am - - - - - CALM 0 0 0 0 - - -
24/07:00am - - - - - NNW 7 9 4 5 - - -
24/06:30am - - - - - NNE 11 13 6 7 - - -
24/06:00am - - - - - NE 9 11 5 6 - - -
24/05:30am - - - - - NNW 7 9 4 5 - - -
24/05:00am - - - - - NNW 7 11 4 6 - - -
24/04:30am - - - - - W 11 13 6 7 - - -
24/04:00am - - - - - WNW 9 11 5 6 - - -
24/03:30am - - - - - NW 9 13 5 7 - - -
24/03:00am - - - - - NNE 7 9 4 5 - - -
24/02:30am - - - - - ENE 7 9 4 5 - - -
24/02:00am - - - - - CALM 0 0 0 0 - - -
24/01:30am - - - - - CALM 0 0 0 0 - - -
24/01:00am - - - - - CALM 0 0 0 0 - - -
24/12:30am - - - - - NNE 6 7 3 4 - - -
24/12:00am - - - - - CALM 0 0 0 0 - - -
 
Date/Time
EDT
Temp
°C
App
Temp
°C
Dew
Point
°C
Rel
Hum
%
Delta-T
°C
Wind Press
QNH
hPa
Press
MSL
hPa
Rain since
9am
mm
Dir  Spd
km/h
Gust
km/h
Spd
kts
Gust
kts
23/11:30pm - - - - - CALM 0 0 0 0 - - -
23/11:00pm - - - - - CALM 0 0 0 0 - - -
23/10:30pm - - - - - CALM 0 0 0 0 - - -
23/10:00pm - - - - - CALM 0 0 0 0 - - -
23/09:30pm - - - - - S 6 9 3 5 - - -
23/09:00pm - - - - - SSW 11 13 6 7 - - -
23/08:30pm - - - - - S 15 19 8 10 - - -
23/08:00pm - - - - - SSW 17 19 9 10 - - -
23/07:30pm - - - - - SSW 19 22 10 12 - - -
23/07:00pm - - - - - S 20 24 11 13 - - -
23/06:30pm - - - - - SSW 20 26 11 14 - - -
23/06:00pm - - - - - SSW 26 30 14 16 - - -
23/05:30pm - - - - - SSW 28 32 15 17 - - -
23/05:00pm - - - - - SSW 33 37 18 20 - - -
23/04:30pm - - - - - SSW 28 32 15 17 - - -
23/04:00pm - - - - - SSW 26 32 14 17 - - -
23/03:30pm - - - - - SSW 22 26 12 14 - - -
23/03:00pm - - - - - SSW 19 20 10 11 - - -
23/02:30pm - - - - - SSW 15 19 8 10 - - -
23/02:00pm - - - - - S 7 11 4 6 - - -
23/01:30pm - - - - - CALM 0 0 0 0 - - -
23/01:00pm - - - - - SW 7 9 4 5 - - -
23/12:30pm - - - - - WSW 9 13 5 7 - - -
23/12:00pm - - - - - CALM 0 7 0 4 - - -
23/11:30am - - - - - W 7 9 4 5 - - -
23/11:00am - - - - - NW 7 9 4 5 - - -
23/10:30am - - - - - NW 9 11 5 6 - - -
23/10:00am - - - - - W 11 15 6 8 - - -
23/09:30am - - - - - WNW 17 19 9 10 - - -
23/09:00am - - - - - WNW 17 19 9 10 - - -
23/08:30am - - - - - WNW 20 26 11 14 - - -
23/08:00am - - - - - WNW 19 22 10 12 - - -
23/07:30am - - - - - W 19 24 10 13 - - -
23/07:00am - - - - - W 20 24 11 13 - - -
23/06:30am - - - - - W 22 26 12 14 - - -
23/06:00am - - - - - WNW 19 24 10 13 - - -
23/05:30am - - - - - W 20 24 11 13 - - -
23/05:00am - - - - - W 22 26 12 14 - - -
23/04:30am - - - - - W 22 30 12 16 - - -
23/04:00am - - - - - W 24 28 13 15 - - -
23/03:30am - - - - - W 22 26 12 14 - - -
23/03:00am - - - - - WSW 22 26 12 14 - - -
23/02:30am - - - - - W 19 20 10 11 - - -
23/02:00am - - - - - WSW 22 28 12 15 - - -
23/01:30am - - - - - WSW 22 30 12 16 - - -
23/01:00am - - - - - WSW 24 30 13 16 - - -
23/12:30am - - - - - WSW 20 24 11 13 - - -
23/12:00am - - - - - WSW 22 28 12 15 - - -
 
Date/Time
EDT
Temp
°C
App
Temp
°C
Dew
Point
°C
Rel
Hum
%
Delta-T
°C
Wind Press
QNH
hPa
Press
MSL
hPa
Rain since
9am
mm
Dir  Spd
km/h
Gust
km/h
Spd
kts
Gust
kts
22/11:30pm - - - - - WSW 28 35 15 19 - - -
22/11:00pm - - - - - SW 30 33 16 18 - - -
22/10:30pm - - - - - WSW 33 39 18 21 - - -
22/10:00pm - - - - - SW 33 39 18 21 - - -
22/09:30pm - - - - - SW 35 41 19 22 - - -
22/09:00pm - - - - - SW 35 41 19 22 - - -
22/08:30pm - - - - - SW 37 44 20 24 - - -
22/08:00pm - - - - - SW 33 39 18 21 - - -
22/07:30pm - - - - - SW 35 41 19 22 - - -
22/07:00pm - - - - - SW 37 44 20 24 - - -
22/06:30pm - - - - - SW 41 46 22 25 - - -
22/06:00pm - - - - - SSW 41 48 22 26 - - -
22/05:30pm - - - - - SSW 41 48 22 26 - - -
22/05:00pm - - - - - SW 41 48 22 26 - - -
22/04:30pm - - - - - SSW 35 43 19 23 - - -
22/04:00pm - - - - - SSW 35 41 19 22 - - -
22/03:30pm - - - - - SSW 32 39 17 21 - - -
22/03:00pm - - - - - SW 33 39 18 21 - - -
22/02:30pm - - - - - SW 33 39 18 21 - - -
22/02:00pm - - - - - SW 35 43 19 23 - - -
22/01:30pm - - - - - SW 33 39 18 21 - - -
22/01:00pm - - - - - SW 33 43 18 23 - - -
22/12:30pm - - - - - SW 32 39 17 21 - - -
22/12:00pm - - - - - SW 39 46 21 25 - - -
22/11:30am - - - - - SW 30 35 16 19 - - -
22/11:04am - - - - - WSW 28 48 15 26 - - -
22/11:00am - - - - - WSW 28 35 15 19 - - -
22/10:30am - - - - - WSW 32 39 17 21 - - -
22/10:18am - - - - - WSW 28 46 15 25 - - -
22/10:00am - - - - - W 30 37 16 20 - - -
22/09:30am - - - - - W 26 32 14 17 - - -
22/09:00am - - - - - WSW 33 43 18 23 - - -
22/08:30am - - - - - SW 32 37 17 20 - - -
22/08:00am - - - - - WSW 33 39 18 21 - - -
22/07:30am - - - - - W 24 46 13 25 - - -
22/07:00am - - - - - WSW 32 41 17 22 - - -
22/06:30am - - - - - WSW 32 37 17 20 - - -
22/06:00am - - - - - WSW 35 41 19 22 - - -
22/05:30am - - - - - WSW 33 39 18 21 - - -
22/05:00am - - - - - WSW 32 37 17 20 - - -
22/04:30am - - - - - W 26 32 14 17 - - -
22/04:00am - - - - - WSW 35 39 19 21 - - -
22/03:30am - - - - - WSW 35 41 19 22 - - -
22/03:15am - - - - - WSW 30 41 16 22 - - -
22/03:00am - - - - - W 30 33 16 18 - - -
22/02:30am - - - - - W 28 33 15 18 - - -
22/02:00am - - - - - W 30 35 16 19 - - -
22/01:30am - - - - - W 30 35 16 19 - - -
22/01:00am - - - - - WSW 28 37 15 20 - - -
22/12:30am - - - - - WSW 26 32 14 17 - - -
22/12:00am - - - - - WSW 28 33 15 18 - - -
 
Date/Time
EDT
Temp
°C
App
Temp
°C
Dew
Point
°C
Rel
Hum
%
Delta-T
°C
Wind Press
QNH
hPa
Press
MSL
hPa
Rain since
9am
mm
Dir  Spd
km/h
Gust
km/h
Spd
kts
Gust
kts
21/11:30pm - - - - - WSW 28 35 15 19 - - -
21/11:00pm - - - - - WSW 32 39 17 21 - - -
21/10:30pm - - - - - WSW 33 41 18 22 - - -
21/10:00pm - - - - - WSW 35 41 19 22 - - -
21/09:30pm - - - - - SW 35 46 19 25 - - -
21/09:00pm - - - - - SW 32 37 17 20 - - -
21/08:30pm - - - - - SW 35 41 19 22 - - -
21/08:00pm - - - - - SW 37 43 20 23 - - -
21/07:30pm - - - - - SW 37 43 20 23 - - -
21/07:00pm - - - - - SW 41 48 22 26 - - -
21/06:30pm - - - - - SW 41 48 22 26 - - -
21/06:00pm - - - - - SW 37 43 20 23 - - -
21/05:30pm - - - - - SSW 37 43 20 23 - - -
21/05:00pm - - - - - SW 37 44 20 24 - - -
21/04:30pm - - - - - SW 35 43 19 23 - - -
21/04:00pm - - - - - SW 32 41 17 22 - - -
21/03:30pm - - - - - SW 35 41 19 22 - - -
21/03:00pm - - - - - SW 32 37 17 20 - - -
21/02:30pm - - - - - SW 30 35 16 19 - - -
21/02:00pm - - - - - SW 32 37 17 20 - - -
21/01:30pm - - - - - SW 30 35 16 19 - - -
21/01:00pm - - - - - WSW 24 32 13 17 - - -
21/12:30pm - - - - - SW 32 39 17 21 - - -
21/12:05pm - - - - - SW 33 43 18 23 - - -
21/12:00pm - - - - - WSW 39 50 21 27 - - -
21/11:30am - - - - - SW 32 43 17 23 - - -
21/11:00am - - - - - WSW 39 43 21 23 - - -
21/10:49am - - - - - WSW 37 43 20 23 - - -
21/10:30am - - - - - SSW 28 37 15 20 - - -
21/10:00am - - - - - SW 28 33 15 18 - - -

Other Formats:

Comma delimited format used in spreadsheet applications
http://www.bom.gov.au/fwo/IDV60801/IDV60801.94853.axf

JavaScript Object Notation format (JSON) in row-major order
http://www.bom.gov.au/fwo/IDV60801/IDV60801.94853.json